createdAt,value
2022-11-08T00:00:44.705Z,14.43
2022-11-08T00:03:12.939Z,13.98
2022-11-08T00:05:59.910Z,12.85
2022-11-08T00:08:46.927Z,14.05
2022-11-08T00:11:35.036Z,13.52
2022-11-08T00:14:06.131Z,14.27
2022-11-08T00:16:34.320Z,14.18
2022-11-08T00:19:02.590Z,14.95
2022-11-08T00:21:30.722Z,13.73
2022-11-08T00:23:59.898Z,13.48
2022-11-08T00:26:28.676Z,14.43
2022-11-08T00:28:58.111Z,14.98
2022-11-08T00:31:26.338Z,12.57
2022-11-08T00:33:56.372Z,12.93
2022-11-08T00:36:24.615Z,12.88
2022-11-08T00:38:52.814Z,14.05
2022-11-08T00:41:21.032Z,12.98
2022-11-08T00:43:49.191Z,14.73
2022-11-08T00:46:17.400Z,14.20
2022-11-08T00:48:48.559Z,14.25
2022-11-08T00:51:17.105Z,14.00
2022-11-08T00:53:45.249Z,13.80
2022-11-08T00:56:32.400Z,13.93
2022-11-08T00:59:00.963Z,14.40
2022-11-08T01:01:29.157Z,14.07
2022-11-08T01:03:57.405Z,13.65
2022-11-08T01:06:26.381Z,14.80
2022-11-08T01:08:56.028Z,11.73
2022-11-08T01:11:25.816Z,13.85
2022-11-08T01:13:58.223Z,12.70
2022-11-08T01:16:29.498Z,13.07
2022-11-08T01:18:58.717Z,12.30
2022-11-08T01:21:29.580Z,12.48
2022-11-08T01:23:57.729Z,12.35
2022-11-08T01:26:28.055Z,12.45
2022-11-08T01:28:57.808Z,12.05
2022-11-08T01:31:31.580Z,12.13
2022-11-08T01:34:03.512Z,13.25
2022-11-08T01:36:31.775Z,12.20
2022-11-08T01:38:59.920Z,12.70
2022-11-08T01:41:28.527Z,11.70
2022-11-08T01:43:58.987Z,11.23
2022-11-08T01:46:38.823Z,11.95
2022-11-08T01:49:15.879Z,11.60
2022-11-08T01:51:55.723Z,10.80
2022-11-08T01:55:00.890Z,10.45
2022-11-08T01:57:42.892Z,10.10
2022-11-08T02:00:14.946Z,9.50
2022-11-08T02:02:45.755Z,9.93
2022-11-08T02:05:26.807Z,10.43
2022-11-08T02:08:30.611Z,9.18
2022-11-08T02:10:58.950Z,9.02
2022-11-08T02:13:29.527Z,8.52
2022-11-08T02:15:57.959Z,9.50
2022-11-08T02:18:29.773Z,9.60
2022-11-08T02:21:01.500Z,9.65
2022-11-08T02:23:54.577Z,9.15
2022-11-08T02:26:28.904Z,9.40
2022-11-08T02:28:57.240Z,9.73
2022-11-08T02:31:25.492Z,9.77
2022-11-08T02:33:53.700Z,10.30
2022-11-08T02:36:24.461Z,10.77
2022-11-08T02:38:57.528Z,10.07
2022-11-08T02:41:25.714Z,10.10
2022-11-08T02:43:53.839Z,10.07
2022-11-08T02:46:21.941Z,8.93
2022-11-08T02:48:50.134Z,10.07
2022-11-08T02:51:18.252Z,9.50
2022-11-08T02:53:46.419Z,8.93
2022-11-08T02:56:14.555Z,10.00
2022-11-08T02:58:42.728Z,10.25
2022-11-08T03:01:10.936Z,8.52
2022-11-08T03:03:39.188Z,9.65
2022-11-08T03:06:07.501Z,9.35
2022-11-08T03:08:35.821Z,8.18
2022-11-08T03:11:06.622Z,9.30
2022-11-08T03:13:34.938Z,9.25
2022-11-08T03:16:04.831Z,9.73
2022-11-08T03:18:35.658Z,8.20
2022-11-08T03:21:03.997Z,9.00
2022-11-08T03:23:33.129Z,9.55
2022-11-08T03:26:02.880Z,8.60
2022-11-08T03:28:31.999Z,8.98
2022-11-08T03:31:00.399Z,8.77
2022-11-08T03:33:28.612Z,8.40
2022-11-08T03:35:56.828Z,8.80
2022-11-08T03:38:25.008Z,8.55
2022-11-08T03:40:53.219Z,9.25
2022-11-08T03:43:21.411Z,9.35
2022-11-08T03:45:49.606Z,9.68
2022-11-08T03:48:19.066Z,9.57
2022-11-08T03:50:47.563Z,9.35
2022-11-08T03:53:15.768Z,9.70
2022-11-08T03:55:43.949Z,9.35
2022-11-08T03:58:12.320Z,9.98
2022-11-08T04:00:43.484Z,9.30
2022-11-08T04:03:11.612Z,9.73
2022-11-08T04:05:39.808Z,9.15
2022-11-08T04:08:08.121Z,9.63
2022-11-08T04:10:36.370Z,10.70
2022-11-08T04:13:23.049Z,9.38
2022-11-08T04:15:56.300Z,9.10
2022-11-08T04:21:21.895Z,8.80
2022-11-08T04:23:52.257Z,9.00
2022-11-08T04:26:22.316Z,9.00
2022-11-08T04:28:50.498Z,8.93
2022-11-08T04:31:19.960Z,8.73
2022-11-08T04:33:48.150Z,8.25
2022-11-08T04:36:17.517Z,8.80
2022-11-08T04:38:51.759Z,7.95
2022-11-08T04:41:24.321Z,8.68
2022-11-08T04:43:54.936Z,8.10
2022-11-08T04:46:25.548Z,7.65
2022-11-08T04:48:59.095Z,8.10
2022-11-08T04:51:32.555Z,7.78
2022-11-08T04:54:02.417Z,8.15
2022-11-08T04:56:31.564Z,8.52
2022-11-08T04:59:00.787Z,8.00
2022-11-08T05:01:31.201Z,7.63
2022-11-08T05:03:59.574Z,7.72
2022-11-08T05:06:32.388Z,8.38
2022-11-08T05:09:01.268Z,7.72
2022-11-08T05:11:30.646Z,7.90
2022-11-08T05:14:00.967Z,8.07
2022-11-08T05:16:32.142Z,7.95
2022-11-08T05:19:01.001Z,7.68
2022-11-08T05:21:47.550Z,10.60
2022-11-08T05:24:18.436Z,7.68
2022-11-08T05:26:48.294Z,7.82
2022-11-08T05:29:17.364Z,7.13
2022-11-08T05:31:48.291Z,7.30
2022-11-08T05:34:16.570Z,7.13
2022-11-08T05:36:44.707Z,8.02
2022-11-08T05:39:12.904Z,7.45
2022-11-08T05:41:41.185Z,6.82
2022-11-08T05:44:09.874Z,6.72
2022-11-08T05:46:38.024Z,8.32
2022-11-08T05:49:06.230Z,6.30
2022-11-08T05:51:39.694Z,6.65
2022-11-08T05:54:08.225Z,7.00
2022-11-08T05:56:36.817Z,6.78
2022-11-08T05:59:07.251Z,6.68
2022-11-08T06:01:35.723Z,6.85
2022-11-08T06:04:03.946Z,6.43
2022-11-08T06:06:32.403Z,7.18
2022-11-08T06:09:00.558Z,7.22
2022-11-08T06:11:28.961Z,7.03
2022-11-08T06:13:59.987Z,6.15
2022-11-08T06:16:28.224Z,7.20
2022-11-08T06:18:56.645Z,7.00
2022-11-08T06:21:27.255Z,7.10
2022-11-08T06:23:55.789Z,6.40
2022-11-08T06:26:24.657Z,6.45
2022-11-08T06:28:53.140Z,6.78
2022-11-08T06:31:24.238Z,8.65
2022-11-08T06:33:52.430Z,7.50
2022-11-08T06:36:21.574Z,8.63
2022-11-08T06:38:54.895Z,8.68
2022-11-08T06:43:51.528Z,7.47
2022-11-08T06:46:19.907Z,6.80
2022-11-08T06:48:48.552Z,8.07
2022-11-08T06:51:16.772Z,7.35
2022-11-08T06:53:44.940Z,7.15
2022-11-08T06:56:13.472Z,6.55
2022-11-08T06:58:42.003Z,6.68
2022-11-08T07:01:11.640Z,7.57
2022-11-08T07:03:40.048Z,7.07
2022-11-08T07:06:08.461Z,7.45
2022-11-08T07:08:36.766Z,7.65
2022-11-08T07:11:05.509Z,7.15
2022-11-08T07:13:33.730Z,7.72
2022-11-08T07:16:02.725Z,7.45
2022-11-08T07:18:31.024Z,9.00
2022-11-08T07:21:02.961Z,9.13
2022-11-08T07:23:32.576Z,8.15
2022-11-08T07:26:05.072Z,8.38
2022-11-08T07:28:33.282Z,9.90
2022-11-08T07:31:04.635Z,8.13
2022-11-08T07:33:32.976Z,9.10
2022-11-08T07:36:01.840Z,10.00
2022-11-08T07:38:32.888Z,10.35
2022-11-08T07:41:02.046Z,9.10
2022-11-08T07:43:30.954Z,9.80
2022-11-08T07:46:11.129Z,8.88
2022-11-08T07:48:39.377Z,9.32
2022-11-08T07:51:10.606Z,8.10
2022-11-08T07:53:42.654Z,8.48
2022-11-08T07:56:11.132Z,8.27
2022-11-08T07:58:39.326Z,7.47
2022-11-08T08:01:07.580Z,8.00
2022-11-08T08:03:35.767Z,6.93
2022-11-08T08:06:03.993Z,8.20
2022-11-08T08:08:32.086Z,8.25
2022-11-08T08:11:01.110Z,8.65
2022-11-08T08:13:30.151Z,10.23
2022-11-08T08:16:00.608Z,8.68
2022-11-08T08:18:29.996Z,8.98
2022-11-08T08:20:58.097Z,7.85
2022-11-08T08:23:26.468Z,7.90
2022-11-08T08:25:54.924Z,7.97
2022-11-08T08:28:23.146Z,7.22
2022-11-08T08:30:51.400Z,6.93
2022-11-08T08:33:28.336Z,7.55
2022-11-08T08:35:57.998Z,8.00
2022-11-08T08:38:26.180Z,7.00
2022-11-08T08:40:54.331Z,6.82
2022-11-08T08:43:25.897Z,6.38
2022-11-08T08:45:54.987Z,6.90
2022-11-08T08:48:23.138Z,6.47
2022-11-08T08:50:51.333Z,6.63
2022-11-08T08:53:19.807Z,6.15
2022-11-08T08:55:48.378Z,5.72
2022-11-08T08:58:16.546Z,5.47
2022-11-08T09:03:37.712Z,5.85
2022-11-08T09:06:06.092Z,5.13
2022-11-08T09:08:34.765Z,5.82
2022-11-08T09:11:03.184Z,4.85
2022-11-08T09:13:32.404Z,5.95
2022-11-08T09:16:02.820Z,5.40
2022-11-08T09:18:31.839Z,5.55
2022-11-08T09:21:00.618Z,4.97
2022-11-08T09:23:29.192Z,19.63
2022-11-08T09:26:02.676Z,15.90
2022-11-08T09:28:32.471Z,7.30
2022-11-08T09:31:12.056Z,5.35
2022-11-08T09:33:41.195Z,6.35
2022-11-08T09:36:12.535Z,5.70
2022-11-08T09:38:42.091Z,6.13
2022-11-08T09:41:13.089Z,6.40
2022-11-08T09:43:46.808Z,5.93
2022-11-08T09:46:58.313Z,10.60
2022-11-08T09:49:38.013Z,11.15
2022-11-08T09:52:09.434Z,7.03
2022-11-08T09:54:49.889Z,6.75
2022-11-08T09:57:26.536Z,6.03
2022-11-08T10:00:05.094Z,7.97
2022-11-08T10:02:36.444Z,9.75
2022-11-08T10:05:13.027Z,9.70
2022-11-08T10:07:57.805Z,10.70
2022-11-08T10:11:07.323Z,10.77
2022-11-08T10:13:56.750Z,8.95
2022-11-08T10:17:10.279Z,8.15
2022-11-08T10:20:16.267Z,6.60
2022-11-08T10:22:50.234Z,6.93
2022-11-08T10:25:26.867Z,7.35
2022-11-08T10:27:59.376Z,6.63
2022-11-08T10:30:36.418Z,6.03
2022-11-08T10:33:34.469Z,5.32
2022-11-08T10:36:11.505Z,7.45
2022-11-08T10:39:11.594Z,7.57
2022-11-08T10:41:42.456Z,5.18
2022-11-08T10:44:17.058Z,5.22
2022-11-08T10:46:50.740Z,5.80
2022-11-08T10:49:21.703Z,5.85
2022-11-08T10:51:55.306Z,5.65
2022-11-08T10:54:45.546Z,6.00
2022-11-08T10:57:24.032Z,5.57
2022-11-08T10:59:52.793Z,5.47
2022-11-08T11:02:25.093Z,6.55
2022-11-08T11:05:12.812Z,5.80
2022-11-08T11:07:43.017Z,5.50
2022-11-08T11:10:27.281Z,5.53
2022-11-08T11:13:14.079Z,6.20
2022-11-08T11:15:51.263Z,7.32
2022-11-08T11:18:39.862Z,5.57
2022-11-08T11:21:16.344Z,5.80
2022-11-08T11:23:57.106Z,6.40
2022-11-08T11:26:30.859Z,6.00
2022-11-08T11:29:05.392Z,6.13
2022-11-08T11:31:41.317Z,6.18
2022-11-08T11:34:18.833Z,6.50
2022-11-08T11:36:59.259Z,6.88
2022-11-08T11:39:46.098Z,6.55
2022-11-08T11:42:59.750Z,6.25
2022-11-08T11:45:50.995Z,5.70
2022-11-08T11:48:29.206Z,5.95
2022-11-08T11:50:58.327Z,6.68
2022-11-08T11:53:33.158Z,4.97
2022-11-08T11:56:40.924Z,6.15
2022-11-08T11:59:36.840Z,5.88
2022-11-08T12:02:23.995Z,7.43
2022-11-08T12:08:10.817Z,6.22
2022-11-08T12:11:00.791Z,5.85
2022-11-08T12:13:37.833Z,5.88
2022-11-08T12:16:26.202Z,5.50
2022-11-08T12:19:30.142Z,5.60
2022-11-08T12:22:29.295Z,6.20
2022-11-08T12:25:00.458Z,6.20
2022-11-08T12:27:58.209Z,5.10
2022-11-08T12:30:44.281Z,5.63
2022-11-08T12:33:31.542Z,4.95
2022-11-08T12:36:16.298Z,6.15
2022-11-08T12:39:10.046Z,6.35
2022-11-08T12:41:44.019Z,5.95
2022-11-08T12:44:37.701Z,6.55
2022-11-08T12:47:23.844Z,5.80
2022-11-08T12:50:20.551Z,7.15
2022-11-08T12:53:06.933Z,6.60
2022-11-08T12:55:42.012Z,6.80
2022-11-08T12:58:29.366Z,6.30
2022-11-08T13:01:11.432Z,5.85
2022-11-08T13:03:51.673Z,6.35
2022-11-08T13:06:35.565Z,4.70
2022-11-08T13:09:03.716Z,5.38
2022-11-08T13:11:46.865Z,4.53
2022-11-08T13:14:17.269Z,4.88
2022-11-08T13:17:06.616Z,4.82
2022-11-08T13:19:49.831Z,5.07
2022-11-08T13:22:30.234Z,4.32
2022-11-08T13:25:30.245Z,3.75
2022-11-08T13:27:58.627Z,3.20
2022-11-08T13:30:31.967Z,3.38
2022-11-08T13:35:58.548Z,2.95
2022-11-08T13:38:50.872Z,2.60
2022-11-08T13:41:21.956Z,2.50
2022-11-08T13:43:53.431Z,2.45
2022-11-08T13:46:27.952Z,1.90
2022-11-08T13:49:01.894Z,2.50
2022-11-08T13:51:40.978Z,2.83
2022-11-08T13:54:21.141Z,2.20
2022-11-08T13:57:03.205Z,2.83
2022-11-08T13:59:31.416Z,2.60
2022-11-08T14:02:04.500Z,2.30
2022-11-08T14:04:37.215Z,1.83
2022-11-08T14:07:37.068Z,2.00
2022-11-08T14:10:22.957Z,2.42
2022-11-08T14:12:54.335Z,2.08
2022-11-08T14:15:28.120Z,2.67
2022-11-08T14:18:05.103Z,2.22
2022-11-08T14:20:39.701Z,3.13
2022-11-08T14:23:20.328Z,2.33
2022-11-08T14:25:55.534Z,2.28
2022-11-08T14:28:31.236Z,2.03
2022-11-08T14:31:01.047Z,2.63
2022-11-08T14:33:32.269Z,2.70
2022-11-08T14:36:07.362Z,2.28
2022-11-08T14:38:46.043Z,2.47
2022-11-08T14:41:19.034Z,3.70
2022-11-08T14:43:50.523Z,2.92
2022-11-08T14:46:23.735Z,3.13
2022-11-08T14:48:55.116Z,2.55
2022-11-08T14:51:24.476Z,2.72
2022-11-08T14:53:54.594Z,2.20
2022-11-08T14:56:25.328Z,2.40
2022-11-08T15:01:26.883Z,3.00
2022-11-08T15:04:02.494Z,2.38
2022-11-08T15:06:41.923Z,3.15
2022-11-08T15:09:27.749Z,2.80
2022-11-08T15:12:03.077Z,2.80
2022-11-08T15:14:35.915Z,2.78
2022-11-08T15:17:04.909Z,2.38
2022-11-08T15:19:40.141Z,2.90
2022-11-08T15:22:25.774Z,2.58
2022-11-08T15:25:14.244Z,3.42
2022-11-08T15:27:50.863Z,3.17
2022-11-08T15:30:43.393Z,4.13
2022-11-08T15:33:33.666Z,4.13
2022-11-08T15:36:03.010Z,4.40
2022-11-08T15:38:38.490Z,4.10
2022-11-08T15:41:32.369Z,4.80
2022-11-08T15:46:41.158Z,3.80
2022-11-08T15:49:19.360Z,4.05
2022-11-08T15:51:49.693Z,4.88
2022-11-08T15:54:19.300Z,4.72
2022-11-08T15:56:49.531Z,5.22
2022-11-08T15:59:27.416Z,9.95
2022-11-08T16:02:00.596Z,10.18
2022-11-08T16:04:30.155Z,12.00
2022-11-08T16:07:01.301Z,17.02
2022-11-08T16:09:29.529Z,18.73
2022-11-08T16:11:57.716Z,19.13
2022-11-08T16:14:25.879Z,20.55
2022-11-08T16:16:55.212Z,22.55
2022-11-08T16:19:25.075Z,26.85
2022-11-08T16:21:53.674Z,30.15
2022-11-08T16:24:21.812Z,30.63
2022-11-08T16:26:50.098Z,45.15
2022-11-08T16:29:21.409Z,67.38
2022-11-08T16:31:50.925Z,87.07
2022-11-08T16:34:22.748Z,92.25
2022-11-08T16:36:51.970Z,85.05
2022-11-08T16:39:23.199Z,96.43
2022-11-08T16:41:51.666Z,71.47
2022-11-08T16:44:19.802Z,59.47
2022-11-08T16:46:48.030Z,48.70
2022-11-08T16:49:21.271Z,53.90
2022-11-08T16:51:49.765Z,61.53
2022-11-08T16:54:20.753Z,60.95
2022-11-08T16:56:48.996Z,52.58
2022-11-08T16:59:17.164Z,55.28
2022-11-08T17:01:45.967Z,54.35
2022-11-08T17:04:16.797Z,42.88
2022-11-08T17:06:45.151Z,36.08
2022-11-08T17:09:13.376Z,20.50
2022-11-08T17:11:41.876Z,14.65
2022-11-08T17:14:12.567Z,13.93
2022-11-08T17:16:40.784Z,14.63
2022-11-08T17:19:08.974Z,15.13
2022-11-08T17:21:45.731Z,17.30
2022-11-08T17:24:20.021Z,18.88
2022-11-08T17:26:50.586Z,16.08
2022-11-08T17:29:18.834Z,18.95
2022-11-08T17:31:47.443Z,23.58
2022-11-08T17:34:15.721Z,19.35
2022-11-08T17:36:43.918Z,18.23
2022-11-08T17:39:14.260Z,12.77
2022-11-08T17:41:42.554Z,8.98
2022-11-08T17:44:10.675Z,8.68
2022-11-08T17:46:38.932Z,10.38
2022-11-08T17:49:08.132Z,10.43
2022-11-08T17:51:36.725Z,10.93
2022-11-08T17:54:04.972Z,12.55
2022-11-08T17:56:33.091Z,14.93
2022-11-08T17:59:01.338Z,15.48
2022-11-08T18:01:30.001Z,15.80
2022-11-08T18:03:58.393Z,15.55
2022-11-08T18:06:26.515Z,16.55
2022-11-08T18:08:56.996Z,16.17
2022-11-08T18:11:25.243Z,14.65
2022-11-08T18:13:53.531Z,15.80
2022-11-08T18:16:22.432Z,14.57
2022-11-08T18:18:52.385Z,15.73
2022-11-08T18:21:20.816Z,15.85
2022-11-08T18:23:50.011Z,14.57
2022-11-08T18:26:18.793Z,15.05
2022-11-08T18:28:47.037Z,13.93
2022-11-08T18:31:18.233Z,14.45
2022-11-08T18:33:50.246Z,13.07
2022-11-08T18:36:24.051Z,12.05
2022-11-08T18:38:52.937Z,13.00
2022-11-08T18:41:32.933Z,12.85
2022-11-08T18:44:02.769Z,11.68
2022-11-08T18:46:40.263Z,13.07
2022-11-08T18:49:11.614Z,11.85
2022-11-08T18:51:40.536Z,11.93
2022-11-08T18:54:08.857Z,13.73
2022-11-08T18:56:37.243Z,13.60
2022-11-08T18:59:07.896Z,13.27
2022-11-08T19:01:37.473Z,11.25
2022-11-08T19:04:05.728Z,11.13
2022-11-08T19:06:33.891Z,12.02
2022-11-08T19:09:02.394Z,10.88
2022-11-08T19:11:32.595Z,12.75
2022-11-08T19:14:02.003Z,11.18
2022-11-08T19:16:30.511Z,10.45
2022-11-08T19:18:58.714Z,11.68
2022-11-08T19:21:27.965Z,12.18
2022-11-08T19:24:00.524Z,12.77
2022-11-08T19:26:29.353Z,14.00
2022-11-08T19:28:58.186Z,12.70
2022-11-08T19:31:26.531Z,13.27
2022-11-08T19:33:55.222Z,13.60
2022-11-08T19:36:28.848Z,12.73
2022-11-08T19:38:58.342Z,13.25
2022-11-08T19:41:28.278Z,13.93
2022-11-08T19:43:56.683Z,13.98
2022-11-08T19:46:29.071Z,12.93
2022-11-08T19:48:59.746Z,12.17
2022-11-08T19:51:31.593Z,12.63
2022-11-08T19:54:02.551Z,12.60
2022-11-08T19:56:50.583Z,11.85
2022-11-08T19:59:19.467Z,12.10
2022-11-08T20:01:47.751Z,11.48
2022-11-08T20:04:18.397Z,11.77
2022-11-08T20:06:46.708Z,12.00
2022-11-08T20:09:14.942Z,12.50
2022-11-08T20:11:43.156Z,11.50
2022-11-08T20:14:13.528Z,11.75
2022-11-08T20:16:49.191Z,13.57
2022-11-08T20:19:19.288Z,13.77
2022-11-08T20:21:48.381Z,14.18
2022-11-08T20:24:17.335Z,14.98
2022-11-08T20:26:48.304Z,13.77
2022-11-08T20:29:16.470Z,13.80
2022-11-08T20:31:44.647Z,12.20
2022-11-08T20:34:13.299Z,11.95
2022-11-08T20:36:44.230Z,12.43
2022-11-08T20:39:15.356Z,14.43
2022-11-08T20:41:44.477Z,14.55
2022-11-08T20:44:12.787Z,16.55
2022-11-08T20:46:41.104Z,14.70
2022-11-08T20:49:09.639Z,15.02
2022-11-08T20:51:38.821Z,14.63
2022-11-08T20:54:07.687Z,14.52
2022-11-08T20:56:36.120Z,14.50
2022-11-08T20:59:05.060Z,16.10
2022-11-08T21:01:35.067Z,17.70
2022-11-08T21:04:04.439Z,19.50
2022-11-08T21:06:35.914Z,19.73
2022-11-08T21:09:32.672Z,19.90
2022-11-08T21:11:55.692Z,18.98
2022-11-08T21:14:28.313Z,18.90
2022-11-08T21:17:20.779Z,17.65
2022-11-08T21:19:45.087Z,17.95
2022-11-08T21:22:16.332Z,16.25
2022-11-08T21:24:46.206Z,18.35
2022-11-08T21:27:18.682Z,17.42
2022-11-08T21:29:46.750Z,15.50
2022-11-08T21:32:14.961Z,15.02
2022-11-08T21:34:46.243Z,16.80
2022-11-08T21:37:15.090Z,16.23
2022-11-08T21:39:43.425Z,16.70
2022-11-08T21:42:11.750Z,15.65
2022-11-08T21:44:39.959Z,16.05
2022-11-08T21:47:08.105Z,17.55
2022-11-08T21:49:36.372Z,16.48
2022-11-08T21:52:04.789Z,16.92
2022-11-08T21:54:33.825Z,18.45
2022-11-08T21:57:01.977Z,17.92
2022-11-08T21:59:30.113Z,17.77
2022-11-08T22:01:58.220Z,18.95
2022-11-08T22:04:26.332Z,17.58
2022-11-08T22:06:54.668Z,21.45
2022-11-08T22:09:22.838Z,18.65
2022-11-08T22:11:53.423Z,19.58
2022-11-08T22:14:21.654Z,20.38
2022-11-08T22:16:49.872Z,19.95
2022-11-08T22:19:18.636Z,17.60
2022-11-08T22:21:47.571Z,19.60
2022-11-08T22:24:22.452Z,18.83
2022-11-08T22:26:51.825Z,17.48
2022-11-08T22:29:20.420Z,18.00
2022-11-08T22:31:48.828Z,16.77
2022-11-08T22:34:17.078Z,17.30
2022-11-08T22:36:46.131Z,17.67
2022-11-08T22:39:16.650Z,16.17
2022-11-08T22:41:46.263Z,16.20
2022-11-08T22:44:15.032Z,17.38
2022-11-08T22:46:44.747Z,20.00
2022-11-08T22:49:13.391Z,18.77
2022-11-08T22:51:42.616Z,19.25
2022-11-08T22:54:11.089Z,19.23
2022-11-08T22:56:40.357Z,18.38
2022-11-08T22:59:08.930Z,19.55
2022-11-08T23:01:37.136Z,18.30
2022-11-08T23:04:05.692Z,19.30
2022-11-08T23:06:33.928Z,18.60
2022-11-08T23:09:03.944Z,18.75
2022-11-08T23:11:50.785Z,17.58
2022-11-08T23:14:37.905Z,18.70
2022-11-08T23:17:08.147Z,19.50
2022-11-08T23:19:55.026Z,16.63
2022-11-08T23:22:41.658Z,16.80
2022-11-08T23:25:09.853Z,17.30
2022-11-08T23:27:59.976Z,17.85
2022-11-08T23:30:46.652Z,18.05
2022-11-08T23:33:14.866Z,17.00
2022-11-08T23:36:02.962Z,17.95
2022-11-08T23:38:31.459Z,16.85
2022-11-08T23:41:19.021Z,17.05
2022-11-08T23:44:05.781Z,18.70
2022-11-08T23:46:33.989Z,18.15
2022-11-08T23:49:05.047Z,18.40
2022-11-08T23:51:33.435Z,16.40
2022-11-08T23:54:01.575Z,17.15
2022-11-08T23:56:30.019Z,16.20
2022-11-08T23:58:59.833Z,17.20
